Main page
METAR-TAF:

METAR-TAF

Airports :

International Airport Irkutsk

Irkutsk, Russia

latitude: 52-16N, longitude: 104-19E, elevation: 513 m

Current weather observation

The report was made 38 minutes ago, at 05:00 UTC
Wind 10 kt from the South
Temperature -5°C
Humidity 100%
Pressure 1024 hPa
Visibility 10 km or more
Few clouds at a height of 1200 ft

METAR: UIII 060500Z 17005MPS 9999 FEW012 M05/M05 Q1024 R30/820552 NOSIG RMK QFE723/0964

Time: 13:38 (05:38 UTC)

Forecast

The report was made 38 minutes ago, at 05:00 UTC
Forecast valid from 06 at 06 UTC to 07 at 06 UTC
Wind 10 kt from the South/Southeast with gusts up to 19 kt
Visibility 10 km or more
no clouds below 1500 m and no cumulonimbus

TAF: UIII 060500Z 0606/0706 16005G10MPS CAVOK

Weather observations and forecasts of more than 4000 airports (METAR and TAF reports).

The available stations are represented by yellow and red dots on the map.

Hover mouse over dot to see the name of the station.

Then click to see weather observations and forecasts.

To change the map : click on the green buttons with a black cross to zoom in, on the green button with a dash to zoom out, or on the green arrows for adjacent maps.


METAR-TAF: